Time,TemperatureF,DewpointF,PressureIn,WindDirection,WindDirectionDegrees,WindSpeedMPH,WindSpeedGustMPH,Humidity,HourlyPrecipIn,Conditions,Clouds,dailyrainin,SoftwareType,DateUTC
2013-04-13 00:00:00,72.0,68.9,29.91,NNW,335,0.0,0.0,90,0.00,,,0.00,Wunderground v.1.13,2013-04-13 04:00:00,
2013-04-13 00:02:00,72.0,68.9,29.91,NNW,335,0.0,0.0,90,0.00,,,0.00,Wunderground v.1.13,2013-04-13 04:02:00,
2013-04-13 00:04:00,72.0,68.9,29.91,NNW,335,0.0,0.0,90,0.00,,,0.00,Wunderground v.1.13,2013-04-13 04:04:00,
2013-04-13 00:10:00,72.0,68.9,29.91,NNW,335,0.0,0.0,90,0.00,,,0.00,Wunderground v.1.13,2013-04-13 04:10:00,
2013-04-13 00:16:00,71.9,68.5,29.91,NNW,335,0.0,0.0,89,0.00,,,0.00,Wunderground v.1.13,2013-04-13 04:16:00,
2013-04-13 00:18:00,71.9,68.5,29.91,NNW,335,0.0,0.0,89,0.00,,,0.00,Wunderground v.1.13,2013-04-13 04:18:00,
2013-04-13 00:24:00,71.8,68.7,29.91,NNW,334,0.0,0.0,90,0.00,,,0.00,Wunderground v.1.13,2013-04-13 04:24:00,
2013-04-13 00:30:00,71.8,68.7,29.91,NNW,334,0.0,0.0,90,0.00,,,0.00,Wunderground v.1.13,2013-04-13 04:30:00,
2013-04-13 00:36:00,71.7,68.6,29.91,NNW,334,0.0,0.0,90,0.00,,,0.00,Wunderground v.1.13,2013-04-13 04:36:00,
2013-04-13 00:42:00,71.7,68.6,29.90,NNW,335,0.0,0.0,90,0.00,,,0.00,Wunderground v.1.13,2013-04-13 04:42:00,
2013-04-13 00:48:00,71.7,68.6,29.91,NNW,336,0.0,0.0,90,0.00,,,0.00,Wunderground v.1.13,2013-04-13 04:48:00,
2013-04-13 00:54:00,71.7,68.6,29.90,NE,42,0.0,0.0,90,0.00,,,0.00,Wunderground v.1.13,2013-04-13 04:54:00,
2013-04-13 01:00:00,71.7,68.6,29.89,NE,42,0.0,0.0,90,0.00,,,0.00,Wunderground v.1.13,2013-04-13 05:00:00,
2013-04-13 01:06:00,71.7,68.6,29.89,NE,42,0.0,0.0,90,0.00,,,0.00,Wunderground v.1.13,2013-04-13 05:06:00,
2013-04-13 01:12:00,71.7,68.6,29.89,NE,42,0.0,0.0,90,0.00,,,0.00,Wunderground v.1.13,2013-04-13 05:12:00,
2013-04-13 01:18:00,71.7,68.6,29.89,NE,42,0.0,0.0,90,0.00,,,0.00,Wunderground v.1.13,2013-04-13 05:18:00,
2013-04-13 01:24:00,71.6,68.5,29.90,NE,42,0.0,0.0,90,0.00,,,0.00,Wunderground v.1.13,2013-04-13 05:24:00,
2013-04-13 01:30:00,71.6,68.5,29.90,NE,42,0.0,0.0,90,0.00,,,0.00,Wunderground v.1.13,2013-04-13 05:30:00,
2013-04-13 01:36:00,71.6,68.5,29.91,NE,42,0.0,0.0,90,0.00,,,0.00,Wunderground v.1.13,2013-04-13 05:36:00,
2013-04-13 01:42:00,71.7,68.6,29.91,NE,42,0.0,0.0,90,0.00,,,0.00,Wunderground v.1.13,2013-04-13 05:42:00,
2013-04-13 01:48:00,71.6,68.5,29.91,NE,42,0.0,0.0,90,0.00,,,0.00,Wunderground v.1.13,2013-04-13 05:48:00,
2013-04-13 01:54:00,71.6,68.5,29.91,NE,42,0.0,0.0,90,0.00,,,0.00,Wunderground v.1.13,2013-04-13 05:54:00,
2013-04-13 02:00:00,71.6,68.5,29.91,NE,42,0.0,0.0,90,0.00,,,0.00,Wunderground v.1.13,2013-04-13 06:00:00,
2013-04-13 02:08:00,71.6,68.5,29.91,NE,42,0.0,0.0,90,0.00,,,0.00,Wunderground v.1.13,2013-04-13 06:08:00,
2013-04-13 02:14:00,71.5,68.1,29.90,NE,42,0.0,0.0,89,0.00,,,0.00,Wunderground v.1.13,2013-04-13 06:14:00,
2013-04-13 02:22:00,71.3,68.2,29.90,NE,42,0.0,0.0,90,0.00,,,0.00,Wunderground v.1.13,2013-04-13 06:22:00,
2013-04-13 02:30:00,71.2,68.1,29.90,NE,42,0.0,0.0,90,0.00,,,0.00,Wunderground v.1.13,2013-04-13 06:30:00,
2013-04-13 02:38:00,71.0,67.9,29.89,NE,42,0.0,0.0,90,0.00,,,0.00,Wunderground v.1.13,2013-04-13 06:38:00,
2013-04-13 02:52:00,70.9,68.1,29.90,NE,42,0.0,0.0,91,0.00,,,0.00,Wunderground v.1.13,2013-04-13 06:52:00,
2013-04-13 02:58:00,70.9,68.1,29.90,NE,42,0.0,0.0,91,0.00,,,0.00,Wunderground v.1.13,2013-04-13 06:58:00,
2013-04-13 03:04:00,70.8,68.0,29.90,NE,42,0.0,0.0,91,0.00,,,0.00,Wunderground v.1.13,2013-04-13 07:04:00,
2013-04-13 03:10:00,70.8,68.0,29.90,NE,42,0.0,0.0,91,0.00,,,0.00,Wunderground v.1.13,2013-04-13 07:10:00,
2013-04-13 03:16:00,70.8,68.0,29.90,NE,42,0.0,0.0,91,0.00,,,0.00,Wunderground v.1.13,2013-04-13 07:16:00,
2013-04-13 03:22:00,71.0,68.2,29.90,NE,42,0.0,0.0,91,0.00,,,0.00,Wunderground v.1.13,2013-04-13 07:22:00,
2013-04-13 03:28:00,71.0,68.2,29.89,NE,42,0.0,0.0,91,0.00,,,0.00,Wunderground v.1.13,2013-04-13 07:28:00,
2013-04-13 03:34:00,70.9,68.1,29.90,NE,42,0.0,0.0,91,0.00,,,0.00,Wunderground v.1.13,2013-04-13 07:34:00,
2013-04-13 03:40:00,70.8,68.0,29.90,NE,42,0.0,0.0,91,0.00,,,0.00,Wunderground v.1.13,2013-04-13 07:40:00,
2013-04-13 03:46:00,70.8,68.0,29.89,NE,42,0.0,0.0,91,0.00,,,0.00,Wunderground v.1.13,2013-04-13 07:46:00,
2013-04-13 03:54:00,70.7,67.9,29.89,NE,42,0.0,0.0,91,0.00,,,0.00,Wunderground v.1.13,2013-04-13 07:54:00,
2013-04-13 04:00:00,70.7,68.3,29.89,NE,42,0.0,0.0,92,0.00,,,0.00,Wunderground v.1.13,2013-04-13 08:00:00,
2013-04-13 04:06:00,70.6,68.2,29.89,NE,42,0.0,0.0,92,0.00,,,0.00,Wunderground v.1.13,2013-04-13 08:06:00,
2013-04-13 04:12:00,70.5,67.7,29.89,NE,42,0.0,0.0,91,0.00,,,0.00,Wunderground v.1.13,2013-04-13 08:12:00,
2013-04-13 04:18:00,70.5,68.1,29.89,NE,42,0.0,0.0,92,0.00,,,0.00,Wunderground v.1.13,2013-04-13 08:18:00,
2013-04-13 04:26:00,70.6,68.2,29.89,NE,42,0.0,0.0,92,0.00,,,0.00,Wunderground v.1.13,2013-04-13 08:26:00,
2013-04-13 04:32:00,70.4,68.0,29.90,NE,42,0.0,0.0,92,0.00,,,0.00,Wunderground v.1.13,2013-04-13 08:32:00,
2013-04-13 04:38:00,70.3,67.9,29.89,NE,42,0.0,0.0,92,0.00,,,0.00,Wunderground v.1.13,2013-04-13 08:38:00,
2013-04-13 04:46:00,70.3,67.9,29.89,NE,42,0.0,0.0,92,0.00,,,0.00,Wunderground v.1.13,2013-04-13 08:46:00,
2013-04-13 04:52:00,70.2,67.8,29.90,NE,42,0.0,0.0,92,0.00,,,0.00,Wunderground v.1.13,2013-04-13 08:52:00,
2013-04-13 04:58:00,70.2,67.8,29.90,NE,42,0.0,0.0,92,0.00,,,0.00,Wunderground v.1.13,2013-04-13 08:58:00,
2013-04-13 05:04:00,70.2,68.1,29.90,NE,42,0.0,0.0,93,0.00,,,0.00,Wunderground v.1.13,2013-04-13 09:04:00,
2013-04-13 05:12:00,70.3,68.2,29.90,NE,42,0.0,0.0,93,0.00,,,0.00,Wunderground v.1.13,2013-04-13 09:12:00,
2013-04-13 05:18:00,70.3,67.9,29.90,NE,42,0.0,0.0,92,0.00,,,0.00,Wunderground v.1.13,2013-04-13 09:18:00,
2013-04-13 05:24:00,70.4,68.0,29.90,NE,42,0.0,0.0,92,0.00,,,0.00,Wunderground v.1.13,2013-04-13 09:24:00,
2013-04-13 05:30:00,70.4,68.0,29.90,NE,42,0.0,0.0,92,0.00,,,0.00,Wunderground v.1.13,2013-04-13 09:30:00,
2013-04-13 05:36:00,70.4,68.0,29.90,NE,42,0.0,0.0,92,0.00,,,0.00,Wunderground v.1.13,2013-04-13 09:36:00,
2013-04-13 05:42:00,70.4,68.0,29.90,NE,42,0.0,0.0,92,0.00,,,0.00,Wunderground v.1.13,2013-04-13 09:42:00,
2013-04-13 05:52:00,70.2,67.8,29.90,NE,42,0.0,0.0,92,0.00,,,0.00,Wunderground v.1.13,2013-04-13 09:52:00,
2013-04-13 05:58:00,70.1,67.7,29.89,NE,42,0.0,0.0,92,0.00,,,0.00,Wunderground v.1.13,2013-04-13 09:58:00,
2013-04-13 06:04:00,70.2,67.8,29.90,NE,42,0.0,0.0,92,0.00,,,0.00,Wunderground v.1.13,2013-04-13 10:04:00,
2013-04-13 06:10:00,70.1,67.7,29.89,NE,42,0.0,0.0,92,0.00,,,0.00,Wunderground v.1.13,2013-04-13 10:10:00,
2013-04-13 06:18:00,70.1,68.0,29.89,NE,42,0.0,0.0,93,0.00,,,0.00,Wunderground v.1.13,2013-04-13 10:18:00,
2013-04-13 06:24:00,70.0,67.9,29.89,NE,42,0.0,0.0,93,0.00,,,0.00,Wunderground v.1.13,2013-04-13 10:24:00,
2013-04-13 06:30:00,69.8,67.4,29.89,NE,42,0.0,0.0,92,0.00,,,0.00,Wunderground v.1.13,2013-04-13 10:30:00,
2013-04-13 06:36:00,69.6,67.2,29.89,NE,42,0.0,0.0,92,0.00,,,0.00,Wunderground v.1.13,2013-04-13 10:36:00,
2013-04-13 06:42:00,69.6,67.5,29.90,NE,42,0.0,0.0,93,0.00,,,0.00,Wunderground v.1.13,2013-04-13 10:42:00,
2013-04-13 06:48:00,69.4,67.3,29.91,NE,42,0.0,0.0,93,0.00,,,0.00,Wunderground v.1.13,2013-04-13 10:48:00,
2013-04-13 06:54:00,69.4,67.3,29.91,NE,42,0.0,0.0,93,0.00,,,0.00,Wunderground v.1.13,2013-04-13 10:54:00,
2013-04-13 07:00:00,69.3,67.2,29.92,NE,42,0.0,0.0,93,0.00,,,0.00,Wunderground v.1.13,2013-04-13 11:00:00,
2013-04-13 07:06:00,69.2,67.1,29.92,NE,42,0.0,0.0,93,0.00,,,0.00,Wunderground v.1.13,2013-04-13 11:06:00,
2013-04-13 07:12:00,69.2,67.1,29.92,NE,42,0.0,0.0,93,0.00,,,0.00,Wunderground v.1.13,2013-04-13 11:12:00,
2013-04-13 07:18:00,69.2,67.1,29.92,NE,42,0.0,0.0,93,0.00,,,0.00,Wunderground v.1.13,2013-04-13 11:18:00,
2013-04-13 07:24:00,69.1,67.0,29.93,NE,42,0.0,0.0,93,0.00,,,0.00,Wunderground v.1.13,2013-04-13 11:24:00,
2013-04-13 07:30:00,69.1,67.0,29.93,NE,42,0.0,0.0,93,0.00,,,0.00,Wunderground v.1.13,2013-04-13 11:30:00,
2013-04-13 07:36:00,69.1,67.0,29.93,NE,42,0.0,0.0,93,0.00,,,0.00,Wunderground v.1.13,2013-04-13 11:36:00,
2013-04-13 07:42:00,69.1,67.0,29.94,NE,42,0.0,0.0,93,0.00,,,0.00,Wunderground v.1.13,2013-04-13 11:42:00,
2013-04-13 07:48:00,69.1,67.3,29.94,NE,42,0.0,0.0,94,0.00,,,0.00,Wunderground v.1.13,2013-04-13 11:48:00,
2013-04-13 07:56:00,69.2,67.4,29.94,NE,42,0.0,0.0,94,0.00,,,0.00,Wunderground v.1.13,2013-04-13 11:56:00,
2013-04-13 08:02:00,69.3,67.5,29.95,NE,42,0.0,0.0,94,0.00,,,0.00,Wunderground v.1.13,2013-04-13 12:02:00,
2013-04-13 08:08:00,69.5,67.7,29.95,NE,42,0.0,0.0,94,0.00,,,0.00,Wunderground v.1.13,2013-04-13 12:08:00,
2013-04-13 08:14:00,69.7,67.9,29.95,NE,42,0.0,0.0,94,0.00,,,0.00,Wunderground v.1.13,2013-04-13 12:14:00,
2013-04-13 08:20:00,70.2,68.4,29.95,NE,42,0.0,0.0,94,0.00,,,0.00,Wunderground v.1.13,2013-04-13 12:20:00,
2013-04-13 08:28:00,70.6,68.5,29.95,NW,321,0.0,0.0,93,0.00,,,0.00,Wunderground v.1.13,2013-04-13 12:28:00,
2013-04-13 08:34:00,70.6,68.5,29.96,NW,317,0.0,0.0,93,0.00,,,0.00,Wunderground v.1.13,2013-04-13 12:34:00,
2013-04-13 08:40:00,70.6,68.5,29.97,NW,316,0.0,0.0,93,0.00,,,0.00,Wunderground v.1.13,2013-04-13 12:40:00,
2013-04-13 08:46:00,70.5,68.1,29.97,NW,315,0.0,0.0,92,0.00,,,0.00,Wunderground v.1.13,2013-04-13 12:46:00,
2013-04-13 08:52:00,70.4,68.0,29.97,NW,315,0.0,0.0,92,0.00,,,0.00,Wunderground v.1.13,2013-04-13 12:52:00,
2013-04-13 08:58:00,70.6,68.2,29.96,NW,315,0.0,0.0,92,0.00,,,0.00,Wunderground v.1.13,2013-04-13 12:58:00,
2013-04-13 09:06:00,71.0,68.6,29.97,NW,315,0.0,0.0,92,0.00,,,0.00,Wunderground v.1.13,2013-04-13 13:06:00,
2013-04-13 09:14:00,71.1,68.3,29.97,NW,317,0.0,0.0,91,0.00,,,0.00,Wunderground v.1.13,2013-04-13 13:14:00,
2013-04-13 09:22:00,71.3,68.5,29.97,NW,319,0.0,0.0,91,0.00,,,0.00,Wunderground v.1.13,2013-04-13 13:22:00,
2013-04-13 09:28:00,71.7,68.6,29.97,NW,318,0.0,0.0,90,0.00,,,0.00,Wunderground v.1.13,2013-04-13 13:28:00,
2013-04-13 09:34:00,72.2,69.1,29.97,NW,309,0.0,0.0,90,0.00,,,0.00,Wunderground v.1.13,2013-04-13 13:34:00,
2013-04-13 09:40:00,72.7,68.9,29.97,NW,309,0.0,0.0,88,0.00,,,0.00,Wunderground v.1.13,2013-04-13 13:40:00,
2013-04-13 09:46:00,72.9,68.8,29.97,NNW,331,0.0,0.0,87,0.00,,,0.00,Wunderground v.1.13,2013-04-13 13:46:00,
2013-04-13 09:54:00,73.2,68.8,29.97,NNW,331,0.0,0.0,86,0.00,,,0.00,Wunderground v.1.13,2013-04-13 13:54:00,
2013-04-13 10:00:00,73.8,69.3,29.97,NNW,332,0.0,0.0,86,0.00,,,0.00,Wunderground v.1.13,2013-04-13 14:00:00,
2013-04-13 10:08:00,74.6,69.4,29.98,NNW,333,0.0,0.0,84,0.00,,,0.00,Wunderground v.1.13,2013-04-13 14:08:00,
2013-04-13 10:14:00,74.8,69.3,29.98,NNW,332,0.0,0.0,83,0.00,,,0.00,Wunderground v.1.13,2013-04-13 14:14:00,
2013-04-13 10:22:00,75.1,68.9,29.98,NNW,331,0.0,0.0,81,0.00,,,0.00,Wunderground v.1.13,2013-04-13 14:22:00,
2013-04-13 10:28:00,75.5,69.3,29.98,NW,321,0.0,0.0,81,0.00,,,0.00,Wunderground v.1.13,2013-04-13 14:28:00,
2013-04-13 10:38:00,75.8,68.8,29.98,NW,321,0.0,0.0,79,0.00,,,0.00,Wunderground v.1.13,2013-04-13 14:38:00,
2013-04-13 10:44:00,76.3,69.7,29.98,NW,323,0.0,0.0,80,0.00,,,0.00,Wunderground v.1.13,2013-04-13 14:44:00,
2013-04-13 10:50:00,77.0,70.0,29.98,NNE,31,0.0,0.0,79,0.00,,,0.00,Wunderground v.1.13,2013-04-13 14:50:00,
2013-04-13 10:56:00,77.3,69.5,29.98,NE,42,0.0,0.0,77,0.00,,,0.00,Wunderground v.1.13,2013-04-13 14:56:00,
2013-04-13 11:02:00,77.6,69.8,29.98,NE,42,0.0,0.0,77,0.00,,,0.00,Wunderground v.1.13,2013-04-13 15:02:00,
2013-04-13 11:08:00,77.7,69.5,29.98,NE,40,0.0,0.0,76,0.00,,,0.00,Wunderground v.1.13,2013-04-13 15:08:00,
2013-04-13 11:16:00,77.9,69.7,29.98,NE,44,0.0,1.0,76,0.00,,,0.00,Wunderground v.1.13,2013-04-13 15:16:00,
2013-04-13 11:22:00,77.7,69.5,29.98,NE,49,0.0,1.0,76,0.00,,,0.00,Wunderground v.1.13,2013-04-13 15:22:00,
2013-04-13 11:28:00,77.7,69.1,29.98,NE,48,0.0,1.0,75,0.00,,,0.00,Wunderground v.1.13,2013-04-13 15:28:00,
2013-04-13 11:34:00,78.2,69.6,29.98,ENE,69,0.0,1.0,75,0.00,,,0.00,Wunderground v.1.13,2013-04-13 15:34:00,
2013-04-13 11:40:00,78.2,69.2,29.98,ENE,68,0.0,1.0,74,0.00,,,0.00,Wunderground v.1.13,2013-04-13 15:40:00,
2013-04-13 11:48:00,78.1,69.5,29.98,ENE,58,0.0,1.0,75,0.00,,,0.00,Wunderground v.1.13,2013-04-13 15:48:00,
2013-04-13 11:54:00,78.2,70.0,29.99,East,79,0.0,1.0,76,0.00,,,0.00,Wunderground v.1.13,2013-04-13 15:54:00,
2013-04-13 12:00:00,78.8,69.8,29.99,ENE,57,0.0,1.0,74,0.00,,,0.00,Wunderground v.1.13,2013-04-13 16:00:00,
2013-04-13 12:06:00,79.0,70.0,29.99,ENE,60,0.0,0.0,74,0.00,,,0.00,Wunderground v.1.13,2013-04-13 16:06:00,
2013-04-13 12:12:00,79.2,70.2,29.99,ENE,61,0.0,0.0,74,0.00,,,0.00,Wunderground v.1.13,2013-04-13 16:12:00,
2013-04-13 12:18:00,79.8,70.0,29.98,ENE,59,0.0,2.0,72,0.00,,,0.00,Wunderground v.1.13,2013-04-13 16:18:00,
2013-04-13 12:24:00,80.2,69.9,29.98,ENE,59,0.0,2.0,71,0.00,,,0.00,Wunderground v.1.13,2013-04-13 16:24:00,
2013-04-13 12:30:00,80.9,71.0,29.98,ENE,64,0.0,2.0,72,0.00,,,0.00,Wunderground v.1.13,2013-04-13 16:30:00,
2013-04-13 12:38:00,80.7,70.0,29.98,NE,43,0.0,2.0,70,0.00,,,0.00,Wunderground v.1.13,2013-04-13 16:38:00,
2013-04-13 12:44:00,81.1,70.0,29.98,NE,42,0.0,2.0,69,0.00,,,0.00,Wunderground v.1.13,2013-04-13 16:44:00,
2013-04-13 12:50:00,81.6,69.6,29.98,ENE,76,0.0,2.0,67,0.00,,,0.00,Wunderground v.1.13,2013-04-13 16:50:00,
2013-04-13 12:58:00,81.5,69.5,29.97,ENE,75,0.0,2.0,67,0.00,,,0.00,Wunderground v.1.13,2013-04-13 16:58:00,
2013-04-13 13:04:00,81.6,69.6,29.97,NE,51,0.0,2.0,67,0.00,,,0.00,Wunderground v.1.13,2013-04-13 17:04:00,
2013-04-13 13:10:00,82.1,68.7,29.97,NE,53,0.0,0.0,64,0.00,,,0.00,Wunderground v.1.13,2013-04-13 17:10:00,
2013-04-13 13:16:00,82.4,68.5,29.97,NE,51,0.0,4.0,63,0.00,,,0.00,Wunderground v.1.13,2013-04-13 17:16:00,
2013-04-13 13:24:00,82.5,66.7,29.97,ENE,65,0.0,4.0,59,0.00,,,0.00,Wunderground v.1.13,2013-04-13 17:24:00,
2013-04-13 13:30:00,82.4,66.6,29.96,NE,49,0.0,4.0,59,0.00,,,0.00,Wunderground v.1.13,2013-04-13 17:30:00,
2013-04-13 13:36:00,82.7,66.4,29.96,NE,51,0.0,4.0,58,0.00,,,0.00,Wunderground v.1.13,2013-04-13 17:36:00,
2013-04-13 13:42:00,83.2,67.4,29.96,East,81,0.0,4.0,59,0.00,,,0.00,Wunderground v.1.13,2013-04-13 17:42:00,
2013-04-13 13:48:00,83.5,67.7,29.95,East,84,0.0,4.0,59,0.00,,,0.00,Wunderground v.1.13,2013-04-13 17:48:00,
2013-04-13 13:54:00,83.7,67.8,29.95,East,98,0.0,4.0,59,0.00,,,0.00,Wunderground v.1.13,2013-04-13 17:54:00,
2013-04-13 14:02:00,83.8,67.9,29.95,East,82,0.0,4.0,59,0.00,,,0.00,Wunderground v.1.13,2013-04-13 18:02:00,
2013-04-13 14:08:00,83.7,68.3,29.94,North,5,0.0,0.0,60,0.00,,,0.00,Wunderground v.1.13,2013-04-13 18:08:00,
2013-04-13 14:14:00,83.8,68.4,29.94,NNE,27,0.0,0.0,60,0.00,,,0.00,Wunderground v.1.13,2013-04-13 18:14:00,
2013-04-13 14:20:00,84.3,67.9,29.94,NE,36,0.0,1.0,58,0.00,,,0.00,Wunderground v.1.13,2013-04-13 18:20:00,
2013-04-13 14:28:00,84.0,67.6,29.94,NE,41,0.0,1.0,58,0.00,,,0.00,Wunderground v.1.13,2013-04-13 18:28:00,
2013-04-13 14:32:00,84.0,68.1,29.94,NE,41,0.0,1.0,59,0.00,,,0.00,Wunderground v.1.13,2013-04-13 18:32:00,
2013-04-13 14:40:00,84.3,67.9,29.93,NNE,32,0.0,1.0,58,0.00,,,0.00,Wunderground v.1.13,2013-04-13 18:40:00,
2013-04-13 14:44:00,84.5,67.6,29.93,NNE,32,0.0,1.0,57,0.00,,,0.00,Wunderground v.1.13,2013-04-13 18:44:00,
2013-04-13 14:50:00,84.7,68.3,29.92,NE,51,0.0,1.0,58,0.00,,,0.00,Wunderground v.1.13,2013-04-13 18:50:00,
2013-04-13 14:58:00,85.0,68.6,29.92,NE,52,0.0,1.0,58,0.00,,,0.00,Wunderground v.1.13,2013-04-13 18:58:00,
2013-04-13 15:04:00,85.6,69.6,29.92,NW,317,0.0,1.0,59,0.00,,,0.00,Wunderground v.1.13,2013-04-13 19:04:00,
2013-04-13 15:10:00,85.7,69.7,29.92,NE,51,0.0,0.0,59,0.00,,,0.00,Wunderground v.1.13,2013-04-13 19:10:00,
2013-04-13 15:16:00,85.6,70.1,29.91,NE,36,0.0,2.0,60,0.00,,,0.00,Wunderground v.1.13,2013-04-13 19:16:00,
2013-04-13 15:22:00,85.7,69.2,29.91,NNW,334,0.0,2.0,58,0.00,,,0.00,Wunderground v.1.13,2013-04-13 19:22:00,
2013-04-13 15:28:00,86.0,69.0,29.91,NNW,346,0.0,2.0,57,0.00,,,0.00,Wunderground v.1.13,2013-04-13 19:28:00,
2013-04-13 15:34:00,86.4,67.2,29.91,WNW,300,0.0,2.0,53,0.00,,,0.00,Wunderground v.1.13,2013-04-13 19:34:00,
2013-04-13 15:40:00,86.7,68.6,29.91,WNW,298,0.0,2.0,55,0.00,,,0.00,Wunderground v.1.13,2013-04-13 19:40:00,
2013-04-13 15:46:00,86.5,69.5,29.91,NNW,327,0.0,2.0,57,0.00,,,0.00,Wunderground v.1.13,2013-04-13 19:46:00,
2013-04-13 15:52:00,86.0,70.0,29.90,NW,307,1.0,3.0,59,0.00,,,0.00,Wunderground v.1.13,2013-04-13 19:52:00,
2013-04-13 15:58:00,85.6,70.1,29.91,NW,309,1.0,2.0,60,0.00,,,0.00,Wunderground v.1.13,2013-04-13 19:58:00,
2013-04-13 16:04:00,85.3,69.8,29.91,WNW,297,1.0,2.0,60,0.00,,,0.00,Wunderground v.1.13,2013-04-13 20:04:00,
2013-04-13 16:10:00,84.6,70.1,29.91,West,275,2.0,3.0,62,0.00,,,0.00,Wunderground v.1.13,2013-04-13 20:10:00,
2013-04-13 16:16:00,84.1,69.7,29.91,NNW,333,2.0,9.0,62,0.00,,,0.00,Wunderground v.1.13,2013-04-13 20:16:00,
2013-04-13 16:22:00,83.7,69.8,29.91,West,269,2.0,9.0,63,0.00,,,0.00,Wunderground v.1.13,2013-04-13 20:22:00,
2013-04-13 16:28:00,82.1,68.7,29.91,WSW,253,4.0,9.0,64,0.00,,,0.00,Wunderground v.1.13,2013-04-13 20:28:00,
2013-04-13 16:34:00,81.8,68.9,29.91,West,259,3.0,9.0,65,0.00,,,0.00,Wunderground v.1.13,2013-04-13 20:34:00,
2013-04-13 16:40:00,81.7,69.2,29.91,West,273,1.0,9.0,66,0.00,,,0.00,Wunderground v.1.13,2013-04-13 20:40:00,
2013-04-13 16:46:00,82.0,69.1,29.91,West,277,0.0,9.0,65,0.00,,,0.00,Wunderground v.1.13,2013-04-13 20:46:00,
2013-04-13 16:52:00,82.0,68.6,29.91,West,266,0.0,9.0,64,0.00,,,0.00,Wunderground v.1.13,2013-04-13 20:52:00,
2013-04-13 16:58:00,82.0,68.6,29.91,West,274,0.0,9.0,64,0.00,,,0.00,Wunderground v.1.13,2013-04-13 20:58:00,
2013-04-13 17:04:00,81.4,68.1,29.91,WNW,287,1.0,9.0,64,0.00,,,0.00,Wunderground v.1.13,2013-04-13 21:04:00,
2013-04-13 17:10:00,81.2,68.3,29.91,West,261,1.0,8.0,65,0.00,,,0.00,Wunderground v.1.13,2013-04-13 21:10:00,
2013-04-13 17:18:00,81.2,68.3,29.92,SW,230,2.0,2.0,65,0.00,,,0.00,Wunderground v.1.13,2013-04-13 21:18:00,
2013-04-13 17:24:00,81.4,68.1,29.92,WNW,288,1.0,1.0,64,0.00,,,0.00,Wunderground v.1.13,2013-04-13 21:24:00,
2013-04-13 17:30:00,81.5,68.1,29.92,West,279,1.0,1.0,64,0.00,,,0.00,Wunderground v.1.13,2013-04-13 21:30:00,
2013-04-13 17:36:00,81.7,68.8,29.91,West,277,0.0,7.0,65,0.00,,,0.00,Wunderground v.1.13,2013-04-13 21:36:00,
2013-04-13 17:42:00,81.0,68.1,29.91,West,261,1.0,7.0,65,0.00,,,0.00,Wunderground v.1.13,2013-04-13 21:42:00,
2013-04-13 17:48:00,80.3,68.3,29.92,WNW,292,1.0,7.0,67,0.00,,,0.00,Wunderground v.1.13,2013-04-13 21:48:00,
2013-04-13 17:54:00,80.3,68.3,29.92,WNW,292,1.0,1.0,67,0.00,,,0.00,Wunderground v.1.13,2013-04-13 21:54:00,
2013-04-13 18:00:00,80.4,68.9,29.92,WNW,298,1.0,1.0,68,0.00,,,0.00,Wunderground v.1.13,2013-04-13 22:00:00,
2013-04-13 18:08:00,80.2,69.1,29.92,WNW,298,1.0,1.0,69,0.00,,,0.00,Wunderground v.1.13,2013-04-13 22:08:00,
2013-04-13 18:14:00,80.0,68.5,29.92,WNW,297,0.0,0.0,68,0.00,,,0.00,Wunderground v.1.13,2013-04-13 22:14:00,
2013-04-13 18:20:00,79.3,68.2,29.92,NW,313,0.0,9.0,69,0.00,,,0.00,Wunderground v.1.13,2013-04-13 22:20:00,
2013-04-13 18:26:00,78.9,67.9,29.92,WNW,286,1.0,9.0,69,0.00,,,0.00,Wunderground v.1.13,2013-04-13 22:26:00,
2013-04-13 18:32:00,78.7,67.7,29.92,NW,307,0.0,9.0,69,0.00,,,0.00,Wunderground v.1.13,2013-04-13 22:32:00,
2013-04-13 18:38:00,78.7,68.1,29.92,NW,310,0.0,9.0,70,0.00,,,0.00,Wunderground v.1.13,2013-04-13 22:38:00,
2013-04-13 18:44:00,78.5,67.9,29.92,NW,311,0.0,9.0,70,0.00,,,0.00,Wunderground v.1.13,2013-04-13 22:44:00,
2013-04-13 18:50:00,77.8,67.2,29.92,NW,311,0.0,9.0,70,0.00,,,0.00,Wunderground v.1.13,2013-04-13 22:50:00,
2013-04-13 18:56:00,77.6,67.0,29.92,WNW,288,0.0,9.0,70,0.00,,,0.00,Wunderground v.1.13,2013-04-13 22:56:00,
2013-04-13 19:02:00,77.1,66.6,29.92,NW,319,1.0,9.0,70,0.00,,,0.00,Wunderground v.1.13,2013-04-13 23:02:00,
2013-04-13 19:08:00,76.5,66.4,29.92,NW,314,1.0,1.0,71,0.00,,,0.00,Wunderground v.1.13,2013-04-13 23:08:00,
2013-04-13 19:14:00,76.1,66.4,29.92,NW,321,0.0,0.0,72,0.00,,,0.00,Wunderground v.1.13,2013-04-13 23:14:00,
2013-04-13 19:20:00,75.9,66.6,29.92,NW,321,0.0,6.0,73,0.00,,,0.00,Wunderground v.1.13,2013-04-13 23:20:00,
2013-04-13 19:26:00,75.6,66.3,29.92,NW,306,1.0,6.0,73,0.00,,,0.00,Wunderground v.1.13,2013-04-13 23:26:00,
2013-04-13 19:32:00,75.3,66.4,29.92,NW,316,1.0,6.0,74,0.00,,,0.00,Wunderground v.1.13,2013-04-13 23:32:00,
2013-04-13 19:38:00,74.9,66.1,29.92,NW,323,1.0,6.0,74,0.00,,,0.00,Wunderground v.1.13,2013-04-13 23:38:00,
2013-04-13 19:44:00,74.6,65.8,29.91,NW,315,1.0,6.0,74,0.00,,,0.00,Wunderground v.1.13,2013-04-13 23:44:00,
2013-04-13 19:50:00,74.3,65.9,29.91,NW,314,1.0,6.0,75,0.00,,,0.00,Wunderground v.1.13,2013-04-13 23:50:00,
2013-04-13 19:56:00,74.0,65.6,29.92,NW,304,2.0,3.0,75,0.00,,,0.00,Wunderground v.1.13,2013-04-13 23:56:00,
2013-04-13 20:02:00,73.9,65.5,29.92,NW,315,1.0,2.0,75,0.00,,,0.00,Wunderground v.1.13,2013-04-14 00:02:00,
2013-04-13 20:08:00,73.7,65.3,29.92,NW,317,0.0,0.0,75,0.00,,,0.00,Wunderground v.1.13,2013-04-14 00:08:00,
2013-04-13 20:14:00,73.6,65.2,29.92,NW,315,0.0,0.0,75,0.00,,,0.00,Wunderground v.1.13,2013-04-14 00:14:00,
2013-04-13 20:20:00,73.5,65.5,29.91,NW,324,0.0,7.0,76,0.00,,,0.00,Wunderground v.1.13,2013-04-14 00:20:00,
2013-04-13 20:28:00,73.4,65.4,29.91,NW,323,0.0,7.0,76,0.00,,,0.00,Wunderground v.1.13,2013-04-14 00:28:00,
2013-04-13 20:34:00,73.4,65.4,29.91,NW,325,0.0,7.0,76,0.00,,,0.00,Wunderground v.1.13,2013-04-14 00:34:00,
2013-04-13 20:40:00,73.3,65.3,29.92,NW,325,0.0,7.0,76,0.00,,,0.00,Wunderground v.1.13,2013-04-14 00:40:00,
2013-04-13 20:48:00,73.2,65.2,29.91,NW,325,0.0,7.0,76,0.00,,,0.00,Wunderground v.1.13,2013-04-14 00:48:00,
2013-04-13 20:54:00,73.1,65.5,29.92,NNW,327,0.0,7.0,77,0.00,,,0.00,Wunderground v.1.13,2013-04-14 00:54:00,
2013-04-13 21:00:00,73.0,65.4,29.92,NNW,327,0.0,7.0,77,0.00,,,0.00,Wunderground v.1.13,2013-04-14 01:00:00,
2013-04-13 21:06:00,73.0,65.4,29.92,NNW,327,0.0,0.0,77,0.00,,,0.00,Wunderground v.1.13,2013-04-14 01:06:00,
2013-04-13 21:12:00,73.0,65.7,29.93,NNW,327,0.0,0.0,78,0.00,,,0.00,Wunderground v.1.13,2013-04-14 01:12:00,
2013-04-13 21:18:00,73.1,65.5,29.93,NW,326,0.0,0.0,77,0.00,,,0.00,Wunderground v.1.13,2013-04-14 01:18:00,
2013-04-13 21:24:00,73.0,65.4,29.94,NW,326,0.0,0.0,77,0.00,,,0.00,Wunderground v.1.13,2013-04-14 01:24:00,
2013-04-13 21:30:00,73.0,65.7,29.95,NNW,327,0.0,0.0,78,0.00,,,0.00,Wunderground v.1.13,2013-04-14 01:30:00,
2013-04-13 21:36:00,72.9,65.6,29.95,NNW,327,0.0,0.0,78,0.00,,,0.00,Wunderground v.1.13,2013-04-14 01:36:00,
2013-04-13 21:42:00,72.8,65.5,29.95,NW,326,0.0,0.0,78,0.00,,,0.00,Wunderground v.1.13,2013-04-14 01:42:00,
2013-04-13 21:48:00,72.7,65.8,29.95,NNW,327,0.0,0.0,79,0.00,,,0.00,Wunderground v.1.13,2013-04-14 01:48:00,
2013-04-13 21:54:00,72.6,65.7,29.95,NW,326,0.0,0.0,79,0.00,,,0.00,Wunderground v.1.13,2013-04-14 01:54:00,
2013-04-13 22:00:00,72.5,65.6,29.95,NW,326,0.0,0.0,79,0.00,,,0.00,Wunderground v.1.13,2013-04-14 02:00:00,
2013-04-13 22:06:00,72.4,65.9,29.95,NW,326,0.0,0.0,80,0.00,,,0.00,Wunderground v.1.13,2013-04-14 02:06:00,
2013-04-13 22:12:00,72.3,66.1,29.97,NNW,327,0.0,0.0,81,0.00,,,0.00,Wunderground v.1.13,2013-04-14 02:12:00,
2013-04-13 22:18:00,72.2,66.0,29.97,NNW,327,0.0,0.0,81,0.00,,,0.00,Wunderground v.1.13,2013-04-14 02:18:00,
2013-04-13 22:24:00,72.2,66.4,29.97,NW,326,0.0,0.0,82,0.00,,,0.00,Wunderground v.1.13,2013-04-14 02:24:00,
2013-04-13 22:30:00,72.2,66.4,29.96,NE,40,0.0,0.0,82,0.00,,,0.00,Wunderground v.1.13,2013-04-14 02:30:00,
2013-04-13 22:36:00,72.2,66.4,29.96,NE,37,0.0,0.0,82,0.00,,,0.00,Wunderground v.1.13,2013-04-14 02:36:00,
2013-04-13 22:42:00,72.2,66.4,29.97,NE,36,0.0,0.0,82,0.00,,,0.00,Wunderground v.1.13,2013-04-14 02:42:00,
2013-04-13 22:48:00,72.2,66.7,29.97,NNE,32,0.0,0.0,83,0.00,,,0.00,Wunderground v.1.13,2013-04-14 02:48:00,
2013-04-13 22:54:00,72.2,66.7,29.97,NNE,32,0.0,0.0,83,0.00,,,0.00,Wunderground v.1.13,2013-04-14 02:54:00,
2013-04-13 23:00:00,72.2,66.7,29.97,NNE,32,0.0,0.0,83,0.00,,,0.00,Wunderground v.1.13,2013-04-14 03:00:00,
2013-04-13 23:06:00,72.2,66.7,29.97,NE,51,0.0,0.0,83,0.00,,,0.00,Wunderground v.1.13,2013-04-14 03:06:00,
2013-04-13 23:12:00,72.1,66.6,29.97,NE,51,0.0,0.0,83,0.00,,,0.00,Wunderground v.1.13,2013-04-14 03:12:00,
2013-04-13 23:18:00,72.1,66.6,29.97,NE,51,0.0,0.0,83,0.00,,,0.00,Wunderground v.1.13,2013-04-14 03:18:00,
2013-04-13 23:24:00,72.1,66.6,29.97,NE,42,0.0,0.0,83,0.00,,,0.00,Wunderground v.1.13,2013-04-14 03:24:00,
2013-04-13 23:30:00,72.2,66.7,29.97,NNE,14,0.0,0.0,83,0.00,,,0.00,Wunderground v.1.13,2013-04-14 03:30:00,
2013-04-13 23:36:00,72.3,66.5,29.97,NNE,28,0.0,0.0,82,0.00,,,0.00,Wunderground v.1.13,2013-04-14 03:36:00,
2013-04-13 23:42:00,72.4,66.6,29.97,NNE,28,0.0,0.0,82,0.00,,,0.00,Wunderground v.1.13,2013-04-14 03:42:00,
2013-04-13 23:48:00,72.5,66.7,29.97,NE,48,0.0,0.0,82,0.00,,,0.00,Wunderground v.1.13,2013-04-14 03:48:00,
2013-04-13 23:54:00,72.5,66.7,29.97,NE,43,1.0,1.0,82,0.00,,,0.00,Wunderground v.1.13,2013-04-14 03:54:00,